Time;durP1;ratioP1;P1;durP2;ratioP2;P2;SDS_P1;SDS_P2;PMS_P1;PMS_P2;Temp;Humidity;BMP_temperature;BMP_pressure;BME280_temperature;BME280_humidity;BME280_pressure;Samples;Min_cycle;Max_cycle;Signal;HPM_P1;HPM_P2
2023/12/18 00:01:03;;;;;;;5.68;4.88;;;0.90;99.90;;;;;;5068201;28;20182;-72
2023/12/18 00:03:32;;;;;;;6.67;4.90;;;0.90;99.90;;;;;;5069429;28;20195;-72
2023/12/18 00:05:57;;;;;;;6.95;5.05;;;0.90;99.90;;;;;;5069311;28;20768;-72
2023/12/18 00:08:23;;;;;;;5.90;5.10;;;0.90;99.90;;;;;;5067782;28;20275;-72
2023/12/18 00:10:48;;;;;;;6.17;5.00;;;0.90;99.90;;;;;;5069310;28;20233;-72
2023/12/18 00:13:14;;;;;;;11.20;5.57;;;1.10;99.90;;;;;;5067765;28;20192;-72
2023/12/18 00:15:40;;;;;;;7.90;5.37;;;1.10;99.90;;;;;;5067690;28;20255;-72
2023/12/18 00:18:05;;;;;;;8.03;5.50;;;1.10;99.90;;;;;;5067776;28;20187;-72
2023/12/18 00:20:31;;;;;;;6.90;5.77;;;1.00;99.90;;;;;;5069035;28;20207;-72
2023/12/18 00:22:56;;;;;;;6.87;4.63;;;1.00;99.90;;;;;;5067628;28;20624;-72
2023/12/18 00:25:22;;;;;;;8.40;5.93;;;1.00;99.90;;;;;;5068773;28;20192;-72
2023/12/18 00:27:47;;;;;;;8.23;5.00;;;0.90;99.90;;;;;;5067738;28;20337;-72
2023/12/18 00:30:13;;;;;;;7.63;5.33;;;0.90;99.90;;;;;;5067409;28;20243;-72
2023/12/18 00:32:39;;;;;;;6.30;5.20;;;0.90;99.90;;;;;;5068931;28;20180;-72
2023/12/18 00:35:05;;;;;;;6.93;4.90;;;0.90;99.90;;;;;;5067402;28;20595;-72
2023/12/18 00:37:30;;;;;;;9.53;5.20;;;0.90;99.90;;;;;;5068727;28;20211;-72
2023/12/18 00:39:56;;;;;;;8.00;5.50;;;0.80;99.90;;;;;;5067169;28;20464;-72
2023/12/18 00:42:21;;;;;;;6.37;5.43;;;0.80;99.90;;;;;;5068672;28;20279;-72
2023/12/18 00:44:47;;;;;;;7.80;5.67;;;0.80;99.90;;;;;;5068559;28;20192;-72
2023/12/18 00:47:12;;;;;;;7.13;5.07;;;0.80;99.90;;;;;;5066974;28;20207;-73
2023/12/18 00:49:38;;;;;;;6.87;5.30;;;0.80;99.90;;;;;;5050387;28;20288;-72
2023/12/18 00:52:04;;;;;;;9.73;5.43;;;0.90;99.90;;;;;;5068655;28;20656;-73
2023/12/18 00:54:29;;;;;;;6.27;4.37;;;0.90;99.90;;;;;;5068163;28;20183;-72
2023/12/18 00:56:55;;;;;;;5.43;4.90;;;0.90;99.90;;;;;;5068654;28;20209;-72
2023/12/18 00:59:20;;;;;;;8.97;5.77;;;1.00;99.90;;;;;;5069014;28;20193;-72
2023/12/18 01:01:46;;;;;;;6.13;5.40;;;1.00;99.90;;;;;;5067539;28;20252;-72
2023/12/18 01:04:12;;;;;;;7.30;5.40;;;1.10;99.90;;;;;;5068655;28;20704;-73
2023/12/18 01:06:37;;;;;;;7.50;5.00;;;1.00;99.90;;;;;;5068572;28;20752;-72
2023/12/18 01:09:03;;;;;;;5.00;4.50;;;1.00;99.90;;;;;;5068520;28;20469;-72
2023/12/18 01:11:29;;;;;;;6.23;5.00;;;1.00;99.90;;;;;;5068782;28;20184;-72
2023/12/18 01:13:54;;;;;;;5.67;3.60;;;0.90;99.90;;;;;;5050221;28;20215;-72
2023/12/18 01:16:20;;;;;;;4.77;3.53;;;0.90;99.90;;;;;;5068578;28;20873;-72
2023/12/18 01:18:45;;;;;;;4.83;4.33;;;0.80;99.90;;;;;;5067072;28;20188;-72
2023/12/18 01:21:13;;;;;;;4.47;3.60;;;0.80;99.90;;;;;;5066957;28;20282;-72
2023/12/18 01:23:39;;;;;;;8.73;4.22;;;0.80;99.90;;;;;;5068740;28;20190;-72
2023/12/18 01:26:04;;;;;;;4.60;3.60;;;0.90;99.90;;;;;;5066855;28;20223;-72
2023/12/18 01:28:30;;;;;;;3.50;3.20;;;0.90;99.90;;;;;;5068445;28;20527;-72
2023/12/18 01:30:56;;;;;;;6.07;3.72;;;0.90;99.90;;;;;;5068612;28;20183;-73
2023/12/18 01:33:22;;;;;;;3.50;3.20;;;0.90;99.90;;;;;;5068571;28;20673;-73
2023/12/18 01:35:47;;;;;;;3.80;3.27;;;0.90;99.90;;;;;;5068876;28;20202;-73
2023/12/18 01:38:13;;;;;;;3.80;3.33;;;1.00;99.90;;;;;;5050878;28;20278;-73
2023/12/18 01:40:38;;;;;;;3.60;3.10;;;1.00;99.90;;;;;;5070236;28;20237;-72
2023/12/18 01:43:28;;;;;;;4.67;3.47;;;1.10;99.90;;;;;;5069344;28;20191;-73
2023/12/18 01:45:59;;;;;;;3.78;3.30;;;1.20;99.90;;;;;;5069115;28;20717;-72
2023/12/18 01:48:26;;;;;;;4.88;4.43;;;1.10;99.90;;;;;;5068815;28;20187;-73
2023/12/18 01:50:54;;;;;;;4.90;4.07;;;1.20;99.90;;;;;;5068645;28;20207;-73
2023/12/18 01:53:22;;;;;;;4.78;4.18;;;1.10;99.90;;;;;;5068685;28;20183;-72
2023/12/18 01:55:49;;;;;;;5.30;4.43;;;1.20;99.90;;;;;;5068922;28;20654;-73
2023/12/18 01:58:14;;;;;;;10.02;4.60;;;1.10;99.90;;;;;;5067215;28;20615;-71
2023/12/18 02:00:41;;;;;;;6.33;4.33;;;1.10;99.90;;;;;;5068532;28;20215;-72
2023/12/18 02:03:09;;;;;;;6.30;4.43;;;1.00;99.90;;;;;;5067382;28;20275;-73
2023/12/18 02:05:36;;;;;;;5.72;4.57;;;1.00;99.90;;;;;;5068413;28;20287;-73
2023/12/18 02:08:03;;;;;;;4.22;3.83;;;1.10;99.90;;;;;;5072348;28;20187;-73
2023/12/18 02:10:30;;;;;;;5.07;4.57;;;1.00;99.90;;;;;;5070919;28;20717;-73
2023/12/18 02:12:55;;;;;;;5.60;4.60;;;1.00;99.90;;;;;;5072311;28;20483;-72
2023/12/18 02:15:21;;;;;;;8.10;4.60;;;0.90;99.90;;;;;;5070763;28;20306;-72
2023/12/18 02:17:47;;;;;;;6.17;4.87;;;1.00;99.90;;;;;;5070874;28;20184;-72
2023/12/18 02:20:12;;;;;;;7.20;4.67;;;0.90;99.90;;;;;;5070564;28;20259;-72
2023/12/18 02:22:47;;;;;;;7.23;4.40;;;0.80;99.90;;;;;;5071939;28;20183;-72
2023/12/18 02:25:15;;;;;;;7.65;4.82;;;0.80;99.90;;;;;;5070146;28;20473;-72
2023/12/18 02:27:43;;;;;;;7.50;5.75;;;0.80;99.90;;;;;;5072250;28;20316;-72
2023/12/18 02:30:14;;;;;;;9.38;6.45;;;0.70;99.90;;;;;;5071621;28;20961;-71
2023/12/18 02:32:40;;;;;;;7.30;5.88;;;0.70;99.90;;;;;;5071931;28;20180;-72
2023/12/18 02:35:06;;;;;;;8.60;5.77;;;0.70;99.90;;;;;;5072168;28;20191;-72
2023/12/18 02:37:32;;;;;;;6.90;5.45;;;0.70;99.90;;;;;;5071376;28;20969;-72
2023/12/18 02:39:57;;;;;;;8.20;5.73;;;0.70;99.90;;;;;;5070324;28;20327;-72
2023/12/18 02:42:23;;;;;;;6.73;4.77;;;0.70;99.90;;;;;;5069838;28;20240;-71
2023/12/18 02:44:49;;;;;;;5.23;4.37;;;0.60;99.90;;;;;;5071518;28;20679;-71
2023/12/18 02:47:14;;;;;;;6.70;4.97;;;0.70;99.90;;;;;;5071404;28;20199;-71
2023/12/18 02:49:40;;;;;;;6.23;4.53;;;0.70;99.90;;;;;;5071420;28;20203;-71
2023/12/18 02:52:05;;;;;;;5.33;4.77;;;0.70;99.90;;;;;;5071321;28;20653;-73
2023/12/18 02:54:31;;;;;;;5.20;4.20;;;0.60;99.90;;;;;;5069747;28;20192;-72
2023/12/18 02:56:56;;;;;;;6.23;4.40;;;0.60;99.90;;;;;;5071209;28;20585;-73
2023/12/18 02:59:22;;;;;;;6.93;4.57;;;0.60;99.90;;;;;;5071095;28;20214;-72
2023/12/18 03:01:47;;;;;;;7.03;4.20;;;0.60;99.90;;;;;;5069859;28;20645;-72
2023/12/18 03:04:13;;;;;;;6.33;4.40;;;0.60;99.90;;;;;;5069406;28;20269;-72
2023/12/18 03:06:39;;;;;;;6.67;5.17;;;0.50;99.90;;;;;;5052571;28;20219;-72
2023/12/18 03:09:05;;;;;;;5.17;4.37;;;0.50;99.90;;;;;;5069281;28;20708;-72
2023/12/18 03:11:30;;;;;;;8.30;5.38;;;0.50;99.90;;;;;;5069509;28;20175;-72
2023/12/18 03:13:56;;;;;;;5.20;4.40;;;0.50;99.90;;;;;;5070684;28;20207;-72
2023/12/18 03:16:22;;;;;;;6.43;4.40;;;0.50;99.90;;;;;;5070200;28;20219;-72
2023/12/18 03:18:47;;;;;;;6.43;4.00;;;0.50;99.90;;;;;;5070038;28;20607;-73
2023/12/18 03:21:13;;;;;;;8.60;5.27;;;0.60;99.90;;;;;;5070700;28;20222;-73
2023/12/18 03:23:38;;;;;;;7.13;5.03;;;0.60;99.90;;;;;;5069058;28;20191;-72
2023/12/18 03:26:04;;;;;;;5.27;4.10;;;0.50;99.90;;;;;;5070402;28;20222;-72
2023/12/18 03:28:29;;;;;;;7.30;4.50;;;0.40;99.90;;;;;;5070542;28;20190;-73
2023/12/18 03:30:55;;;;;;;9.57;4.27;;;0.40;99.90;;;;;;5069383;28;20205;-72
2023/12/18 03:33:21;;;;;;;4.17;3.50;;;0.40;99.90;;;;;;5070797;28;20206;-72
2023/12/18 03:35:46;;;;;;;5.07;3.63;;;0.40;99.90;;;;;;5070919;28;20197;-73
2023/12/18 03:38:12;;;;;;;3.80;3.40;;;0.40;99.90;;;;;;5052461;28;20333;-73
2023/12/18 03:40:38;;;;;;;4.32;3.55;;;0.50;99.90;;;;;;5071029;28;20180;-73
2023/12/18 03:43:04;;;;;;;3.93;3.50;;;0.60;99.90;;;;;;5071071;28;20183;-73
2023/12/18 03:45:30;;;;;;;5.93;4.45;;;0.70;99.90;;;;;;5069544;28;20308;-72
2023/12/18 03:47:55;;;;;;;5.10;3.50;;;0.80;99.90;;;;;;5071034;28;20334;-72
2023/12/18 03:50:21;;;;;;;4.60;4.00;;;0.80;99.90;;;;;;5070931;28;20218;-72
2023/12/18 03:52:46;;;;;;;6.77;4.40;;;0.90;99.90;;;;;;5069421;28;20183;-72
2023/12/18 03:55:12;;;;;;;5.30;4.23;;;0.80;99.90;;;;;;5070717;28;20544;-71
2023/12/18 03:57:39;;;;;;;7.07;4.67;;;0.80;99.90;;;;;;5070824;28;20185;-72
2023/12/18 04:00:05;;;;;;;4.65;3.95;;;0.80;99.90;;;;;;5070696;28;20182;-73
2023/12/18 04:02:31;;;;;;;5.40;3.80;;;0.80;99.90;;;;;;5068895;28;20337;-72
2023/12/18 04:04:56;;;;;;;4.40;4.00;;;0.80;99.90;;;;;;5069025;28;20712;-73
2023/12/18 04:07:22;;;;;;;5.77;4.73;;;0.80;99.90;;;;;;5070551;28;20575;-71
2023/12/18 04:09:47;;;;;;;5.33;3.70;;;0.80;99.90;;;;;;5070469;28;20240;-72
2023/12/18 04:12:13;;;;;;;5.90;4.10;;;0.80;99.90;;;;;;5068781;28;20192;-71
2023/12/18 04:14:39;;;;;;;5.87;4.30;;;0.80;99.90;;;;;;5068916;28;20187;-72
2023/12/18 04:17:04;;;;;;;4.97;4.40;;;0.80;99.90;;;;;;5069829;28;20258;-72
2023/12/18 04:19:30;;;;;;;6.00;4.70;;;0.80;99.90;;;;;;5069609;28;20183;-72
2023/12/18 04:21:55;;;;;;;5.10;4.20;;;0.80;99.90;;;;;;5068112;28;20258;-72
2023/12/18 04:24:21;;;;;;;5.00;3.93;;;0.80;99.90;;;;;;5051312;28;20195;-72
2023/12/18 04:26:46;;;;;;;5.40;3.80;;;0.70;99.90;;;;;;5067994;28;20718;-72
2023/12/18 04:29:12;;;;;;;4.70;3.50;;;0.70;99.90;;;;;;5069214;28;20195;-72
2023/12/18 04:31:38;;;;;;;5.37;4.37;;;0.70;99.90;;;;;;5069316;28;20175;-72
2023/12/18 04:34:03;;;;;;;4.83;4.33;;;0.70;99.90;;;;;;5051306;28;20832;-71
2023/12/18 04:36:29;;;;;;;7.60;4.70;;;0.60;99.90;;;;;;5069481;28;20214;-72
2023/12/18 04:38:54;;;;;;;6.27;4.57;;;0.60;99.90;;;;;;5067860;28;20197;-72
2023/12/18 04:41:21;;;;;;;5.70;4.27;;;0.60;99.90;;;;;;5067733;28;20183;-72
2023/12/18 04:43:47;;;;;;;6.22;4.15;;;0.60;99.90;;;;;;5070558;28;20234;-72
2023/12/18 04:46:13;;;;;;;18.42;5.93;;;0.60;99.90;;;;;;5068915;28;20210;-72
2023/12/18 04:48:38;;;;;;;7.30;6.07;;;0.50;99.90;;;;;;5067603;28;20203;-71
2023/12/18 04:51:04;;;;;;;6.50;5.10;;;0.50;99.90;;;;;;5068772;28;20183;-72
2023/12/18 04:53:32;;;;;;;6.57;4.20;;;0.40;99.90;;;;;;5068862;28;20175;-71
2023/12/18 04:55:58;;;;;;;4.65;4.18;;;0.40;99.90;;;;;;5050654;28;20635;-72
2023/12/18 04:58:23;;;;;;;5.23;4.00;;;0.40;99.90;;;;;;5068921;28;20189;-71
2023/12/18 05:00:49;;;;;;;4.90;4.20;;;0.40;99.90;;;;;;5068648;28;20183;-72
2023/12/18 05:03:14;;;;;;;12.60;5.33;;;0.40;99.90;;;;;;5067713;28;20176;-72
2023/12/18 05:05:40;;;;;;;7.63;4.50;;;0.50;99.90;;;;;;5068825;28;20559;-72
2023/12/18 05:08:06;;;;;;;6.33;4.30;;;0.50;99.90;;;;;;5069104;28;20183;-72
2023/12/18 05:10:32;;;;;;;4.27;3.70;;;0.50;99.90;;;;;;5068686;28;20564;-70
2023/12/18 05:12:57;;;;;;;6.60;4.60;;;0.60;99.90;;;;;;5068821;28;20463;-72
2023/12/18 05:15:24;;;;;;;4.70;3.70;;;0.60;99.90;;;;;;5068861;28;20552;-72
2023/12/18 05:17:50;;;;;;;5.13;4.53;;;0.60;99.90;;;;;;5068651;28;20187;-71
2023/12/18 05:20:15;;;;;;;6.40;4.10;;;0.50;99.90;;;;;;5068561;28;20202;-72
2023/12/18 05:22:41;;;;;;;5.90;4.30;;;0.50;99.90;;;;;;5067258;28;20191;-72
2023/12/18 05:25:09;;;;;;;5.30;4.13;;;0.60;99.90;;;;;;5065665;28;20740;-70
2023/12/18 05:27:35;;;;;;;6.25;4.80;;;0.60;99.90;;;;;;5067280;28;20764;-72
2023/12/18 05:30:01;;;;;;;4.83;4.33;;;0.60;99.90;;;;;;5067222;28;20318;-72
2023/12/18 05:32:27;;;;;;;6.30;4.70;;;0.60;99.90;;;;;;5067381;28;20856;-71
2023/12/18 05:34:53;;;;;;;7.65;5.00;;;0.60;99.90;;;;;;5066237;28;20180;-71
2023/12/18 05:37:19;;;;;;;14.67;9.37;;;0.60;99.90;;;;;;5067204;28;20210;-72
2023/12/18 05:39:44;;;;;;;13.67;9.40;;;0.60;99.90;;;;;;5067688;28;20198;-72
2023/12/18 05:42:11;;;;;;;10.63;7.03;;;0.50;99.90;;;;;;5072085;28;20187;-71
2023/12/18 05:44:36;;;;;;;9.80;6.65;;;0.40;99.90;;;;;;5071608;28;20665;-72
2023/12/18 05:47:02;;;;;;;9.77;6.87;;;0.40;99.90;;;;;;5069596;28;20226;-71
2023/12/18 05:49:28;;;;;;;9.00;5.70;;;0.40;99.90;;;;;;5071172;28;20210;-71
2023/12/18 05:51:54;;;;;;;6.60;4.80;;;0.40;99.90;;;;;;5071111;28;20187;-72
2023/12/18 05:54:20;;;;;;;7.63;5.10;;;0.20;99.90;;;;;;5071448;28;20239;-72
2023/12/18 05:56:45;;;;;;;6.40;5.30;;;0.30;99.90;;;;;;5069475;28;20460;-71
2023/12/18 05:59:11;;;;;;;8.30;5.77;;;0.30;99.90;;;;;;5070876;28;20655;-72
2023/12/18 06:01:37;;;;;;;7.97;4.97;;;0.30;99.90;;;;;;5069185;28;20226;-71
2023/12/18 06:04:02;;;;;;;6.60;4.40;;;0.20;99.90;;;;;;5071248;28;20215;-72
2023/12/18 06:06:28;;;;;;;6.50;5.00;;;0.20;99.90;;;;;;5069299;28;20638;-71
2023/12/18 06:08:54;;;;;;;5.30;4.50;;;0.30;99.90;;;;;;5069118;28;20211;-72
2023/12/18 06:11:19;;;;;;;5.67;4.10;;;0.30;99.90;;;;;;5070555;28;20558;-72
2023/12/18 06:13:45;;;;;;;7.80;5.57;;;0.30;99.90;;;;;;5070480;28;20732;-72
2023/12/18 06:16:11;;;;;;;9.55;4.85;;;0.30;99.90;;;;;;5070593;28;20206;-72
2023/12/18 06:18:37;;;;;;;5.63;4.60;;;0.30;99.90;;;;;;5069569;28;20929;-72
2023/12/18 06:21:04;;;;;;;5.17;4.17;;;0.30;99.90;;;;;;5070493;28;20712;-71
2023/12/18 06:23:30;;;;;;;8.80;4.68;;;0.30;99.90;;;;;;5069504;28;20840;-71
2023/12/18 06:25:56;;;;;;;6.75;4.97;;;0.20;99.90;;;;;;5071313;28;20222;-71
2023/12/18 06:28:21;;;;;;;5.37;4.63;;;0.20;99.90;;;;;;5071298;28;20185;-71
2023/12/18 06:30:47;;;;;;;5.90;4.67;;;0.10;99.90;;;;;;5071148;28;20748;-72
2023/12/18 06:33:12;;;;;;;9.07;4.50;;;0.10;99.90;;;;;;5069973;28;20233;-71
2023/12/18 06:35:38;;;;;;;7.60;5.10;;;0.10;99.90;;;;;;5071215;28;20195;-73
2023/12/18 06:38:04;;;;;;;7.83;4.13;;;0.20;99.90;;;;;;5069626;28;21026;-71
2023/12/18 06:40:29;;;;;;;6.20;4.67;;;0.10;99.90;;;;;;5071045;28;20194;-71
2023/12/18 06:42:55;;;;;;;7.93;4.70;;;0.10;99.90;;;;;;5070953;28;20183;-72
2023/12/18 06:45:20;;;;;;;5.77;4.73;;;0.20;99.90;;;;;;5070747;28;20609;-72
2023/12/18 06:47:46;;;;;;;7.30;5.03;;;0.10;99.90;;;;;;5070648;28;20196;-73
2023/12/18 06:50:11;;;;;;;6.37;4.50;;;0.10;99.90;;;;;;5052346;28;20681;-71
2023/12/18 06:52:37;;;;;;;5.57;5.00;;;0.10;99.90;;;;;;5069486;28;20262;-72
2023/12/18 06:55:03;;;;;;;6.80;4.93;;;0.20;99.90;;;;;;5070280;28;20186;-72
2023/12/18 06:57:29;;;;;;;6.90;4.97;;;0.20;99.90;;;;;;5068891;28;20521;-71
2023/12/18 06:59:54;;;;;;;7.63;5.27;;;0.30;99.90;;;;;;5069695;28;20417;-72
2023/12/18 07:02:21;;;;;;;10.52;6.10;;;0.20;99.90;;;;;;5068593;28;20238;-72
2023/12/18 07:04:47;;;;;;;17.90;9.03;;;0.20;99.90;;;;;;5068467;28;20268;-72
2023/12/18 07:07:12;;;;;;;10.93;8.13;;;0.10;99.90;;;;;;5069790;28;20209;-72
2023/12/18 07:09:38;;;;;;;17.60;9.63;;;0.10;99.90;;;;;;5069733;28;20815;-72
2023/12/18 07:12:04;;;;;;;20.37;12.97;;;0.10;99.90;;;;;;5068269;28;20180;-72
2023/12/18 07:14:29;;;;;;;87.97;41.53;;;0.20;99.90;;;;;;5069707;28;20554;-71
2023/12/18 07:16:55;;;;;;;53.77;31.43;;;0.10;99.90;;;;;;5069152;28;20435;-71
2023/12/18 07:19:21;;;;;;;15.37;10.13;;;0.20;99.90;;;;;;5068399;28;20295;-71
2023/12/18 07:21:47;;;;;;;11.80;5.68;;;0.10;99.90;;;;;;5068133;28;20191;-72
2023/12/18 07:24:12;;;;;;;5.80;4.13;;;0.10;99.90;;;;;;5069838;28;20296;-72
2023/12/18 07:26:38;;;;;;;5.13;4.63;;;0.10;99.90;;;;;;5069436;28;20255;-72
2023/12/18 07:29:04;;;;;;;7.63;5.27;;;0.20;99.90;;;;;;5069726;28;20211;-72
2023/12/18 07:31:29;;;;;;;8.47;5.73;;;0.20;99.90;;;;;;5069292;28;20417;-72
2023/12/18 07:33:55;;;;;;;6.90;5.10;;;0.20;99.90;;;;;;5069561;28;20211;-72
2023/12/18 07:36:21;;;;;;;5.33;4.83;;;0.20;99.90;;;;;;5068146;28;20203;-72
2023/12/18 07:38:46;;;;;;;7.88;4.80;;;0.20;99.90;;;;;;5069773;28;20188;-72
2023/12/18 07:41:12;;;;;;;6.23;4.77;;;0.30;99.90;;;;;;5069829;28;20658;-72
2023/12/18 07:43:38;;;;;;;23.93;5.13;;;0.40;99.90;;;;;;5068368;28;20184;-71
2023/12/18 07:46:03;;;;;;;8.10;6.07;;;0.40;99.90;;;;;;5069676;28;20232;-72
2023/12/18 07:48:31;;;;;;;9.33;5.70;;;0.40;99.90;;;;;;5070092;28;20180;-72
2023/12/18 07:50:57;;;;;;;6.00;4.93;;;0.40;99.90;;;;;;5069847;28;20263;-72
2023/12/18 07:53:23;;;;;;;5.80;4.40;;;0.40;99.90;;;;;;5070038;28;20624;-71
2023/12/18 07:55:48;;;;;;;5.20;4.70;;;0.40;99.90;;;;;;5069991;28;20272;-72
2023/12/18 07:58:14;;;;;;;10.20;6.50;;;0.50;99.90;;;;;;5068591;28;20675;-71
2023/12/18 08:00:40;;;;;;;11.23;6.13;;;0.50;99.90;;;;;;5069794;28;20658;-72
2023/12/18 08:03:05;;;;;;;7.03;4.83;;;0.60;99.90;;;;;;5069323;28;20222;-72
2023/12/18 08:05:31;;;;;;;15.90;5.90;;;1.10;99.90;;;;;;5069832;28;20217;-72
2023/12/18 08:07:57;;;;;;;7.00;4.87;;;2.80;99.90;;;;;;5068162;28;20187;-72
2023/12/18 08:10:22;;;;;;;5.13;4.10;;;4.40;99.90;;;;;;5068985;28;20723;-71
2023/12/18 08:12:49;;;;;;;7.03;4.70;;;5.10;99.90;;;;;;5068792;28;20181;-72
2023/12/18 08:15:14;;;;;;;8.80;4.50;;;5.50;99.90;;;;;;5069085;28;20182;-73
2023/12/18 08:17:40;;;;;;;43.30;17.43;;;6.00;99.90;;;;;;5068631;28;20449;-70
2023/12/18 08:20:07;;;;;;;27.60;13.10;;;6.40;99.90;;;;;;5067261;28;20654;-71
2023/12/18 08:22:33;;;;;;;25.00;12.20;;;7.70;99.90;;;;;;5068716;28;20187;-72
2023/12/18 08:25:00;;;;;;;37.87;20.43;;;9.10;99.90;;;;;;5068728;28;20432;-73
2023/12/18 08:27:26;;;;;;;15.13;9.43;;;10.20;99.90;;;;;;5068548;28;20467;-72
2023/12/18 08:29:52;;;;;;;16.67;10.07;;;10.80;99.90;;;;;;5067273;28;20474;-72
2023/12/18 08:32:17;;;;;;;11.63;9.03;;;11.50;99.90;;;;;;5068933;28;20184;-72
2023/12/18 08:34:43;;;;;;;13.83;9.87;;;12.10;99.90;;;;;;5068961;28;20292;-72
2023/12/18 08:37:08;;;;;;;16.13;9.93;;;12.90;95.70;;;;;;5071297;28;20209;-72
2023/12/18 08:39:34;;;;;;;14.00;9.10;;;13.90;94.80;;;;;;5070314;28;20183;-72
2023/12/18 08:42:00;;;;;;;14.30;9.23;;;14.60;92.70;;;;;;5070406;28;20184;-73
2023/12/18 08:44:25;;;;;;;10.20;9.07;;;15.40;90.50;;;;;;5071214;28;20653;-74
2023/12/18 08:46:51;;;;;;;12.23;8.30;;;15.80;87.80;;;;;;5068007;28;20227;-72
2023/12/18 08:49:17;;;;;;;10.77;8.73;;;16.30;83.70;;;;;;5068128;28;20259;-73
2023/12/18 08:51:43;;;;;;;10.10;8.70;;;16.60;81.00;;;;;;5068056;28;20217;-74
2023/12/18 08:54:09;;;;;;;11.00;8.40;;;16.80;79.50;;;;;;5067816;28;20176;-73
2023/12/18 08:56:35;;;;;;;8.47;7.40;;;16.00;76.00;;;;;;5066993;28;21350;-72
2023/12/18 08:59:01;;;;;;;11.23;6.83;;;14.60;77.60;;;;;;5068335;28;20514;-71
2023/12/18 09:01:26;;;;;;;9.57;6.43;;;13.20;81.00;;;;;;5068132;28;20493;-72
2023/12/18 09:03:52;;;;;;;6.40;5.50;;;11.80;85.30;;;;;;5067929;28;20244;-72
2023/12/18 09:06:18;;;;;;;17.53;5.60;;;10.70;91.20;;;;;;5065881;28;20258;-72
2023/12/18 09:08:43;;;;;;;8.10;6.30;;;9.90;93.80;;;;;;5067104;28;20245;-71
2023/12/18 09:11:09;;;;;;;8.80;6.37;;;9.00;97.30;;;;;;5067426;28;20182;-71
2023/12/18 09:13:36;;;;;;;8.20;6.80;;;8.40;99.90;;;;;;5067280;28;20607;-71
2023/12/18 09:16:03;;;;;;;18.80;8.00;;;7.90;99.90;;;;;;5066085;28;20292;-72
2023/12/18 09:18:29;;;;;;;10.70;7.00;;;7.50;99.90;;;;;;5067180;28;20552;-71
2023/12/18 09:20:54;;;;;;;11.77;7.20;;;6.90;99.90;;;;;;5065846;28;20936;-71
2023/12/18 09:23:20;;;;;;;14.50;9.03;;;6.30;99.90;;;;;;5067264;28;20215;-72
2023/12/18 09:25:45;;;;;;;13.93;11.10;;;6.00;99.90;;;;;;5067247;28;20341;-71
2023/12/18 09:28:11;;;;;;;17.03;10.60;;;5.80;99.90;;;;;;5066138;28;20264;-72
2023/12/18 09:30:36;;;;;;;14.67;8.80;;;6.20;99.90;;;;;;5067769;28;20217;-70
2023/12/18 09:33:02;;;;;;;9.00;6.80;;;7.80;99.90;;;;;;5068363;28;20179;-72
2023/12/18 09:35:28;;;;;;;12.60;7.57;;;9.80;99.90;;;;;;5066944;28;20770;-72
2023/12/18 09:37:53;;;;;;;15.37;8.70;;;11.40;97.90;;;;;;5067648;28;20179;-72
2023/12/18 09:40:19;;;;;;;11.20;7.23;;;12.50;95.40;;;;;;5068113;28;20186;-72
2023/12/18 09:42:54;;;;;;;16.73;8.60;;;13.90;95.10;;;;;;5068152;28;20412;-72
2023/12/18 09:45:25;;;;;;;9.47;8.47;;;15.50;90.90;;;;;;5066452;28;20689;-73
2023/12/18 09:47:54;;;;;;;11.00;8.30;;;16.60;84.70;;;;;;5067972;28;20440;-73
2023/12/18 09:50:20;;;;;;;9.90;8.40;;;17.50;80.70;;;;;;5067266;28;20470;-73
2023/12/18 09:52:58;;;;;;;7.67;6.60;;;18.40;77.60;;;;;;5067613;28;20420;-72
2023/12/18 09:55:24;;;;;;;8.43;6.20;;;19.20;71.60;;;;;;5066051;28;20456;-73
2023/12/18 09:57:53;;;;;;;8.27;5.93;;;19.30;72.10;;;;;;5067653;28;20413;-74
2023/12/18 10:00:20;;;;;;;7.43;6.20;;;19.20;64.00;;;;;;5068180;28;20194;-74
2023/12/18 10:02:46;;;;;;;11.20;7.00;;;19.70;66.60;;;;;;5048915;28;20431;-74
2023/12/18 10:05:12;;;;;;;7.30;6.40;;;19.70;65.90;;;;;;5065693;28;20461;-73
2023/12/18 10:07:37;;;;;;;7.17;5.80;;;20.20;64.50;;;;;;5066886;28;20443;-74
2023/12/18 10:10:03;;;;;;;7.07;6.27;;;20.50;63.70;;;;;;5065354;28;20657;-74
2023/12/18 10:12:29;;;;;;;6.77;5.40;;;21.20;61.60;;;;;;5065357;28;20683;-73
2023/12/18 10:14:54;;;;;;;7.53;6.10;;;21.40;58.60;;;;;;5066783;28;20600;-73
2023/12/18 10:17:20;;;;;;;8.23;5.80;;;22.10;59.80;;;;;;5067041;28;20279;-73
2023/12/18 10:19:46;;;;;;;6.40;5.80;;;22.50;58.80;;;;;;5067585;28;20268;-74
2023/12/18 10:22:11;;;;;;;5.33;4.83;;;22.90;57.50;;;;;;5066043;28;20213;-73
2023/12/18 10:24:41;;;;;;;6.60;5.13;;;22.20;54.70;;;;;;5067336;28;20945;-73
2023/12/18 10:27:07;;;;;;;6.13;5.20;;;22.00;54.50;;;;;;5067870;28;20292;-73
2023/12/18 10:29:32;;;;;;;4.30;3.90;;;22.20;54.10;;;;;;5070655;28;20497;-73
2023/12/18 10:31:58;;;;;;;4.77;4.37;;;22.40;53.70;;;;;;5070467;28;20209;-74
2023/12/18 10:34:25;;;;;;;5.37;4.87;;;22.40;53.30;;;;;;5070296;28;20736;-73
2023/12/18 10:36:56;;;;;;;5.93;4.70;;;22.90;54.50;;;;;;5052752;28;20448;-72
2023/12/18 10:39:29;;;;;;;4.63;4.23;;;23.70;54.40;;;;;;5070339;28;20456;-73
2023/12/18 10:41:59;;;;;;;5.50;4.90;;;24.10;54.70;;;;;;5070419;28;20953;-73
2023/12/18 10:44:26;;;;;;;5.17;4.67;;;24.50;54.50;;;;;;5052313;28;20506;-73
2023/12/18 10:46:53;;;;;;;4.33;3.87;;;24.60;53.80;;;;;;5070086;28;20537;-73
2023/12/18 10:49:20;;;;;;;5.13;4.63;;;24.80;53.00;;;;;;5069658;28;20847;-73
2023/12/18 10:51:46;;;;;;;8.67;5.23;;;24.80;52.40;;;;;;5069761;28;20968;-73
2023/12/18 10:54:13;;;;;;;6.53;5.13;;;25.00;52.70;;;;;;5069396;28;20882;-73
2023/12/18 10:56:40;;;;;;;6.63;5.20;;;25.10;51.90;;;;;;5068197;28;20575;-73
2023/12/18 10:59:07;;;;;;;5.20;4.70;;;25.00;51.90;;;;;;5069610;28;20417;-74
2023/12/18 11:01:34;;;;;;;5.60;4.97;;;25.20;53.00;;;;;;5067845;28;20433;-72
2023/12/18 11:04:01;;;;;;;5.50;5.00;;;25.00;51.30;;;;;;5069282;28;20786;-73
2023/12/18 11:06:28;;;;;;;8.53;5.23;;;25.00;52.30;;;;;;5069375;28;20666;-73
2023/12/18 11:08:54;;;;;;;4.53;4.10;;;25.00;51.50;;;;;;5068064;28;20429;-73
2023/12/18 11:11:21;;;;;;;5.97;4.77;;;24.90;52.20;;;;;;5069618;28;20417;-72
2023/12/18 11:14:05;;;;;;;5.10;4.70;;;24.80;51.90;;;;;;5069918;28;20190;-72
2023/12/18 11:16:53;;;;;;;5.57;4.10;;;24.40;50.90;;;;;;5069360;28;20487;-73
2023/12/18 11:19:46;;;;;;;6.90;5.03;;;24.40;52.30;;;;;;5069518;28;20425;-72
2023/12/18 11:22:15;;;;;;;4.90;4.20;;;24.00;52.50;;;;;;5064677;28;20521;-73
2023/12/18 11:24:44;;;;;;;4.83;4.33;;;23.70;52.20;;;;;;5069572;28;20417;-71
2023/12/18 11:27:12;;;;;;;9.50;4.13;;;23.40;53.40;;;;;;5067773;28;20488;-72
2023/12/18 11:29:41;;;;;;;6.40;4.00;;;23.30;53.40;;;;;;5069466;28;20461;-71
2023/12/18 11:32:06;;;;;;;9.40;5.90;;;22.90;52.90;;;;;;5069627;28;20851;-72
2023/12/18 11:34:33;;;;;;;8.60;5.80;;;22.50;52.60;;;;;;5069417;28;20506;-70
2023/12/18 11:36:59;;;;;;;5.13;4.60;;;22.20;53.30;;;;;;5069614;28;20604;-71
2023/12/18 11:39:38;;;;;;;7.47;3.67;;;22.10;53.70;;;;;;5068619;28;20441;-72
2023/12/18 11:42:04;;;;;;;4.97;4.27;;;22.30;53.30;;;;;;5069144;28;20472;-73
2023/12/18 11:44:29;;;;;;;3.80;3.50;;;22.00;53.20;;;;;;5068012;28;20422;-71
2023/12/18 11:46:56;;;;;;;4.40;4.00;;;21.70;53.60;;;;;;5050559;28;20763;-72
2023/12/18 11:49:23;;;;;;;16.07;9.70;;;21.40;52.50;;;;;;5067225;28;20706;-72
2023/12/18 11:51:49;;;;;;;10.37;7.50;;;20.90;52.30;;;;;;5068797;28;20425;-73
2023/12/18 11:54:15;;;;;;;15.83;7.73;;;20.40;53.30;;;;;;5068731;28;20418;-71
2023/12/18 11:56:42;;;;;;;8.27;6.70;;;19.60;52.70;;;;;;5069108;28;21319;-72
2023/12/18 11:59:08;;;;;;;8.80;6.27;;;19.10;54.40;;;;;;5069128;28;20183;-72
2023/12/18 12:01:35;;;;;;;12.27;6.87;;;18.30;54.50;;;;;;5068724;28;20460;-71
2023/12/18 12:04:01;;;;;;;8.67;6.93;;;17.70;55.70;;;;;;5068340;28;20432;-72
2023/12/18 12:06:27;;;;;;;16.47;8.90;;;16.90;56.80;;;;;;5068463;28;20454;-72
2023/12/18 12:08:53;;;;;;;12.33;9.03;;;16.10;57.60;;;;;;5068377;28;20676;-72
2023/12/18 12:11:19;;;;;;;9.80;7.40;;;15.50;58.40;;;;;;5066850;28;20478;-72
2023/12/18 12:13:49;;;;;;;11.30;8.20;;;15.10;59.90;;;;;;5068487;28;20647;-71
2023/12/18 12:16:17;;;;;;;17.50;7.40;;;14.40;64.60;;;;;;5066678;28;20502;-71
2023/12/18 12:18:47;;;;;;;9.67;6.93;;;13.80;72.10;;;;;;5068004;28;20411;-72
2023/12/18 12:21:14;;;;;;;15.83;7.17;;;13.50;79.60;;;;;;5066693;28;20417;-71
2023/12/18 12:23:40;;;;;;;16.93;7.40;;;13.00;85.90;;;;;;5066766;28;20425;-71
2023/12/18 12:26:07;;;;;;;14.63;7.27;;;12.40;92.90;;;;;;5066840;28;20464;-71
2023/12/18 12:28:32;;;;;;;17.97;7.43;;;12.20;93.20;;;;;;5068522;28;20930;-71
2023/12/18 12:31:02;;;;;;;15.37;8.17;;;11.80;96.40;;;;;;5068502;28;20492;-71
2023/12/18 12:33:42;;;;;;;10.77;7.27;;;11.60;99.00;;;;;;5067318;28;20181;-72
2023/12/18 12:36:08;;;;;;;9.27;7.63;;;11.30;99.90;;;;;;5066929;28;20982;-71
2023/12/18 12:38:39;;;;;;;13.00;8.10;;;11.10;99.90;;;;;;5068672;28;20397;-72
2023/12/18 12:41:05;;;;;;;13.90;8.70;;;10.90;99.90;;;;;;5068734;28;20419;-71
2023/12/18 12:43:31;;;;;;;13.93;9.27;;;10.80;99.90;;;;;;5069424;28;20413;-70
2023/12/18 12:45:57;;;;;;;15.70;9.40;;;10.60;99.90;;;;;;5068823;28;20451;-72